sensor_id;sensor_type;location;lat;lon;timestamp;pressure;altitude;pressure_sealevel;temperature;humidity
73633;BME280;61927;50.080;14.418;2024-01-27T00:01:36;100592.56;;;5.34;62.35
73633;BME280;61927;50.080;14.418;2024-01-27T00:04:02;100594.69;;;5.18;61.53
73633;BME280;61927;50.080;14.418;2024-01-27T00:06:28;100599.88;;;5.21;63.12
73633;BME280;61927;50.080;14.418;2024-01-27T00:08:53;100599.91;;;5.19;63.09
73633;BME280;61927;50.080;14.418;2024-01-27T00:11:19;100602.34;;;5.29;62.54
73633;BME280;61927;50.080;14.418;2024-01-27T00:13:45;100608.84;;;5.11;63.72
73633;BME280;61927;50.080;14.418;2024-01-27T00:16:11;100607.16;;;5.08;63.65
73633;BME280;61927;50.080;14.418;2024-01-27T00:18:37;100609.94;;;5.01;64.14
73633;BME280;61927;50.080;14.418;2024-01-27T00:21:05;100606.56;;;4.96;63.28
73633;BME280;61927;50.080;14.418;2024-01-27T00:23:31;100602.28;;;4.90;63.61
73633;BME280;61927;50.080;14.418;2024-01-27T00:25:58;100613.66;;;4.91;63.81
73633;BME280;61927;50.080;14.418;2024-01-27T00:28:24;100609.38;;;4.86;63.04
73633;BME280;61927;50.080;14.418;2024-01-27T00:30:50;100607.53;;;4.90;62.46
73633;BME280;61927;50.080;14.418;2024-01-27T00:33:15;100608.00;;;5.10;62.52
73633;BME280;61927;50.080;14.418;2024-01-27T00:35:42;100612.84;;;4.89;62.35
73633;BME280;61927;50.080;14.418;2024-01-27T00:38:07;100615.41;;;4.92;63.70
73633;BME280;61927;50.080;14.418;2024-01-27T00:40:33;100613.50;;;4.98;63.01
73633;BME280;61927;50.080;14.418;2024-01-27T00:42:58;100622.19;;;5.02;62.34
73633;BME280;61927;50.080;14.418;2024-01-27T00:45:24;100624.03;;;4.98;62.60
73633;BME280;61927;50.080;14.418;2024-01-27T00:47:52;100635.50;;;4.94;62.52
73633;BME280;61927;50.080;14.418;2024-01-27T00:50:18;100642.47;;;4.97;62.99
73633;BME280;61927;50.080;14.418;2024-01-27T00:52:43;100635.63;;;4.88;61.76
73633;BME280;61927;50.080;14.418;2024-01-27T00:55:09;100641.78;;;4.87;63.34
73633;BME280;61927;50.080;14.418;2024-01-27T00:57:38;100644.25;;;4.96;62.90
73633;BME280;61927;50.080;14.418;2024-01-27T01:00:05;100635.56;;;4.91;62.60
73633;BME280;61927;50.080;14.418;2024-01-27T01:02:32;100644.91;;;5.06;61.85
73633;BME280;61927;50.080;14.418;2024-01-27T01:04:58;100643.09;;;5.09;62.07
73633;BME280;61927;50.080;14.418;2024-01-27T01:07:23;100645.06;;;4.98;62.29
73633;BME280;61927;50.080;14.418;2024-01-27T01:09:49;100657.38;;;4.96;62.99
73633;BME280;61927;50.080;14.418;2024-01-27T01:12:14;100654.78;;;4.95;61.97
73633;BME280;61927;50.080;14.418;2024-01-27T01:14:41;100658.09;;;5.04;62.46
73633;BME280;61927;50.080;14.418;2024-01-27T01:17:07;100658.81;;;5.12;62.53
73633;BME280;61927;50.080;14.418;2024-01-27T01:19:33;100659.94;;;5.01;62.33
73633;BME280;61927;50.080;14.418;2024-01-27T01:21:58;100655.41;;;5.07;62.48
73633;BME280;61927;50.080;14.418;2024-01-27T01:24:24;100654.44;;;5.11;62.27
73633;BME280;61927;50.080;14.418;2024-01-27T01:26:49;100662.53;;;5.02;62.63
73633;BME280;61927;50.080;14.418;2024-01-27T01:29:16;100673.06;;;5.02;62.50
73633;BME280;61927;50.080;14.418;2024-01-27T01:31:44;100679.28;;;4.98;62.33
73633;BME280;61927;50.080;14.418;2024-01-27T01:34:10;100674.13;;;4.92;62.61
73633;BME280;61927;50.080;14.418;2024-01-27T01:36:35;100683.09;;;4.82;62.96
73633;BME280;61927;50.080;14.418;2024-01-27T01:39:02;100688.34;;;4.82;62.98
73633;BME280;61927;50.080;14.418;2024-01-27T01:41:28;100684.06;;;4.76;63.02
73633;BME280;61927;50.080;14.418;2024-01-27T01:43:54;100694.56;;;4.78;63.14
73633;BME280;61927;50.080;14.418;2024-01-27T01:46:19;100691.66;;;4.92;63.11
73633;BME280;61927;50.080;14.418;2024-01-27T01:48:45;100703.91;;;4.94;63.04
73633;BME280;61927;50.080;14.418;2024-01-27T01:51:11;100702.09;;;4.96;62.26
73633;BME280;61927;50.080;14.418;2024-01-27T01:53:37;100705.47;;;5.03;62.53
73633;BME280;61927;50.080;14.418;2024-01-27T01:56:03;100707.22;;;5.04;63.02
73633;BME280;61927;50.080;14.418;2024-01-27T01:58:29;100700.16;;;5.06;62.91
73633;BME280;61927;50.080;14.418;2024-01-27T02:01:00;100705.47;;;5.03;63.04
73633;BME280;61927;50.080;14.418;2024-01-27T02:03:26;100708.09;;;5.04;62.77
73633;BME280;61927;50.080;14.418;2024-01-27T02:05:52;100707.06;;;5.11;62.83
73633;BME280;61927;50.080;14.418;2024-01-27T02:08:18;100709.06;;;4.99;63.51
73633;BME280;61927;50.080;14.418;2024-01-27T02:10:43;100715.50;;;4.82;64.13
73633;BME280;61927;50.080;14.418;2024-01-27T02:13:19;100719.78;;;4.88;63.22
73633;BME280;61927;50.080;14.418;2024-01-27T02:15:46;100713.53;;;4.95;63.75
73633;BME280;61927;50.080;14.418;2024-01-27T02:18:11;100730.81;;;5.08;62.49
73633;BME280;61927;50.080;14.418;2024-01-27T02:20:37;100719.38;;;5.09;63.50
73633;BME280;61927;50.080;14.418;2024-01-27T02:23:04;100722.19;;;5.00;63.08
73633;BME280;61927;50.080;14.418;2024-01-27T02:25:31;100723.69;;;5.13;62.77
73633;BME280;61927;50.080;14.418;2024-01-27T02:27:57;100717.53;;;5.14;62.88
73633;BME280;61927;50.080;14.418;2024-01-27T02:30:22;100726.47;;;5.06;62.88
73633;BME280;61927;50.080;14.418;2024-01-27T02:32:48;100727.28;;;5.09;62.03
73633;BME280;61927;50.080;14.418;2024-01-27T02:35:14;100730.88;;;5.05;63.34
73633;BME280;61927;50.080;14.418;2024-01-27T02:37:40;100727.47;;;4.99;62.79
73633;BME280;61927;50.080;14.418;2024-01-27T02:40:07;100733.41;;;5.10;63.02
73633;BME280;61927;50.080;14.418;2024-01-27T02:42:33;100727.44;;;5.02;63.55
73633;BME280;61927;50.080;14.418;2024-01-27T02:44:58;100731.91;;;4.97;64.33
73633;BME280;61927;50.080;14.418;2024-01-27T02:47:24;100735.31;;;5.02;63.78
73633;BME280;61927;50.080;14.418;2024-01-27T02:49:49;100736.25;;;4.99;63.71
73633;BME280;61927;50.080;14.418;2024-01-27T02:52:15;100740.81;;;4.90;63.91
73633;BME280;61927;50.080;14.418;2024-01-27T02:54:41;100738.38;;;4.79;62.98
73633;BME280;61927;50.080;14.418;2024-01-27T02:57:06;100755.38;;;4.58;61.75
73633;BME280;61927;50.080;14.418;2024-01-27T02:59:32;100756.25;;;4.59;64.23
73633;BME280;61927;50.080;14.418;2024-01-27T03:01:58;100760.50;;;4.66;64.33
73633;BME280;61927;50.080;14.418;2024-01-27T03:04:23;100765.06;;;4.54;63.83
73633;BME280;61927;50.080;14.418;2024-01-27T03:06:49;100758.06;;;4.55;62.93
73633;BME280;61927;50.080;14.418;2024-01-27T03:09:14;100764.16;;;4.57;62.15
73633;BME280;61927;50.080;14.418;2024-01-27T03:11:40;100782.53;;;4.59;61.67
73633;BME280;61927;50.080;14.418;2024-01-27T03:14:05;100771.13;;;4.60;61.76
73633;BME280;61927;50.080;14.418;2024-01-27T03:16:31;100781.56;;;4.64;61.02
73633;BME280;61927;50.080;14.418;2024-01-27T03:18:58;100777.28;;;4.57;59.15
73633;BME280;61927;50.080;14.418;2024-01-27T03:21:23;100781.72;;;4.53;60.51
73633;BME280;61927;50.080;14.418;2024-01-27T03:23:49;100780.97;;;4.47;60.16
73633;BME280;61927;50.080;14.418;2024-01-27T03:26:14;100781.91;;;4.43;60.60
73633;BME280;61927;50.080;14.418;2024-01-27T03:28:40;100791.41;;;4.51;60.73
73633;BME280;61927;50.080;14.418;2024-01-27T03:31:06;100787.81;;;4.57;59.20
73633;BME280;61927;50.080;14.418;2024-01-27T03:33:32;100800.84;;;4.65;59.48
73633;BME280;61927;50.080;14.418;2024-01-27T03:35:57;100790.38;;;4.60;59.64
73633;BME280;61927;50.080;14.418;2024-01-27T03:38:23;100789.41;;;4.67;58.59
73633;BME280;61927;50.080;14.418;2024-01-27T03:40:49;100790.69;;;4.42;58.38
73633;BME280;61927;50.080;14.418;2024-01-27T03:43:14;100788.25;;;4.30;59.82
73633;BME280;61927;50.080;14.418;2024-01-27T03:45:40;100805.75;;;4.29;59.41
73633;BME280;61927;50.080;14.418;2024-01-27T03:48:06;100803.34;;;4.14;58.96
73633;BME280;61927;50.080;14.418;2024-01-27T03:50:32;100807.66;;;4.19;59.81
73633;BME280;61927;50.080;14.418;2024-01-27T03:52:57;100806.72;;;4.24;59.72
73633;BME280;61927;50.080;14.418;2024-01-27T03:55:23;100814.53;;;4.28;59.61
73633;BME280;61927;50.080;14.418;2024-01-27T03:57:48;100817.28;;;4.20;58.23
73633;BME280;61927;50.080;14.418;2024-01-27T04:00:14;100819.22;;;4.06;58.67
73633;BME280;61927;50.080;14.418;2024-01-27T04:02:40;100818.41;;;4.03;59.54
73633;BME280;61927;50.080;14.418;2024-01-27T04:05:06;100821.94;;;4.00;58.48
73633;BME280;61927;50.080;14.418;2024-01-27T04:07:31;100827.19;;;3.99;59.02
73633;BME280;61927;50.080;14.418;2024-01-27T04:09:57;100827.25;;;3.96;58.89
73633;BME280;61927;50.080;14.418;2024-01-27T04:12:23;100835.19;;;3.91;58.83
73633;BME280;61927;50.080;14.418;2024-01-27T04:14:48;100845.75;;;3.86;58.81
73633;BME280;61927;50.080;14.418;2024-01-27T04:17:14;100843.88;;;3.96;58.50
73633;BME280;61927;50.080;14.418;2024-01-27T04:19:39;100840.44;;;3.89;59.37
73633;BME280;61927;50.080;14.418;2024-01-27T04:22:05;100846.59;;;3.87;59.17
73633;BME280;61927;50.080;14.418;2024-01-27T04:24:31;100848.31;;;3.89;59.09
73633;BME280;61927;50.080;14.418;2024-01-27T04:26:57;100850.94;;;3.89;59.77
73633;BME280;61927;50.080;14.418;2024-01-27T04:29:23;100842.22;;;3.87;60.33
73633;BME280;61927;50.080;14.418;2024-01-27T04:31:49;100852.69;;;3.91;59.29
73633;BME280;61927;50.080;14.418;2024-01-27T04:34:14;100851.66;;;4.02;59.74
73633;BME280;61927;50.080;14.418;2024-01-27T04:36:40;100851.75;;;3.95;59.31
73633;BME280;61927;50.080;14.418;2024-01-27T04:39:06;100854.41;;;3.93;59.77
73633;BME280;61927;50.080;14.418;2024-01-27T04:41:31;100845.78;;;3.82;60.38
73633;BME280;61927;50.080;14.418;2024-01-27T04:43:57;100852.81;;;3.81;60.97
73633;BME280;61927;50.080;14.418;2024-01-27T04:46:24;100856.28;;;3.83;61.20
73633;BME280;61927;50.080;14.418;2024-01-27T04:48:50;100858.19;;;3.69;62.33
73633;BME280;61927;50.080;14.418;2024-01-27T04:51:15;100850.38;;;3.63;62.79
73633;BME280;61927;50.080;14.418;2024-01-27T04:53:41;100848.66;;;3.62;63.72
73633;BME280;61927;50.080;14.418;2024-01-27T04:56:06;100856.53;;;3.62;63.77
73633;BME280;61927;50.080;14.418;2024-01-27T04:58:34;100859.16;;;3.62;63.40
73633;BME280;61927;50.080;14.418;2024-01-27T05:01:01;100856.53;;;3.61;64.33
73633;BME280;61927;50.080;14.418;2024-01-27T05:03:27;100854.88;;;3.53;64.89
73633;BME280;61927;50.080;14.418;2024-01-27T05:05:53;100853.97;;;3.56;63.73
73633;BME280;61927;50.080;14.418;2024-01-27T05:08:19;100856.66;;;3.50;64.41
73633;BME280;61927;50.080;14.418;2024-01-27T05:10:45;100852.31;;;3.47;65.11
73633;BME280;61927;50.080;14.418;2024-01-27T05:13:10;100858.28;;;3.62;63.71
73633;BME280;61927;50.080;14.418;2024-01-27T05:15:36;100856.75;;;3.42;63.55
73633;BME280;61927;50.080;14.418;2024-01-27T05:18:02;100854.88;;;3.52;63.98
73633;BME280;61927;50.080;14.418;2024-01-27T05:20:27;100867.06;;;3.59;63.60
73633;BME280;61927;50.080;14.418;2024-01-27T05:22:53;100854.06;;;3.48;63.65
73633;BME280;61927;50.080;14.418;2024-01-27T05:25:19;100855.72;;;3.57;64.11
73633;BME280;61927;50.080;14.418;2024-01-27T05:27:44;100865.31;;;3.58;62.78
73633;BME280;61927;50.080;14.418;2024-01-27T05:30:10;100865.38;;;3.52;63.33
73633;BME280;61927;50.080;14.418;2024-01-27T05:32:36;100869.88;;;3.41;64.02
73633;BME280;61927;50.080;14.418;2024-01-27T05:35:01;100881.19;;;3.46;64.15
73633;BME280;61927;50.080;14.418;2024-01-27T05:37:29;100877.53;;;3.61;63.36
73633;BME280;61927;50.080;14.418;2024-01-27T05:39:54;100884.50;;;3.65;63.59
73633;BME280;61927;50.080;14.418;2024-01-27T05:42:21;100894.03;;;3.73;63.49
73633;BME280;61927;50.080;14.418;2024-01-27T05:44:47;100892.50;;;3.52;63.66
73633;BME280;61927;50.080;14.418;2024-01-27T05:47:12;100884.59;;;3.55;64.00
73633;BME280;61927;50.080;14.418;2024-01-27T05:49:38;100891.63;;;3.52;63.84
73633;BME280;61927;50.080;14.418;2024-01-27T05:52:04;100895.09;;;3.54;63.83
73633;BME280;61927;50.080;14.418;2024-01-27T05:54:29;100888.94;;;3.58;63.52
73633;BME280;61927;50.080;14.418;2024-01-27T05:56:55;100891.72;;;3.43;63.34
73633;BME280;61927;50.080;14.418;2024-01-27T05:59:21;100907.44;;;3.46;62.36
73633;BME280;61927;50.080;14.418;2024-01-27T06:01:47;100886.34;;;3.55;62.24
73633;BME280;61927;50.080;14.418;2024-01-27T06:04:13;100893.28;;;3.62;62.07
73633;BME280;61927;50.080;14.418;2024-01-27T06:06:38;100901.19;;;3.59;62.12
73633;BME280;61927;50.080;14.418;2024-01-27T06:09:05;100892.50;;;3.52;62.78
73633;BME280;61927;50.080;14.418;2024-01-27T06:11:31;100887.25;;;3.51;62.74
73633;BME280;61927;50.080;14.418;2024-01-27T06:13:57;100892.63;;;3.39;62.88
73633;BME280;61927;50.080;14.418;2024-01-27T06:16:23;100889.97;;;3.43;62.52
73633;BME280;61927;50.080;14.418;2024-01-27T06:18:49;100900.50;;;3.40;62.07
73633;BME280;61927;50.080;14.418;2024-01-27T06:21:15;100903.16;;;3.36;62.52
73633;BME280;61927;50.080;14.418;2024-01-27T06:23:40;100905.03;;;3.23;63.14
73633;BME280;61927;50.080;14.418;2024-01-27T06:26:07;100910.25;;;3.26;63.12
73633;BME280;61927;50.080;14.418;2024-01-27T06:28:32;100924.25;;;3.23;63.17
73633;BME280;61927;50.080;14.418;2024-01-27T06:31:00;100925.84;;;3.41;62.62
73633;BME280;61927;50.080;14.418;2024-01-27T06:33:26;100928.41;;;3.47;62.17
73633;BME280;61927;50.080;14.418;2024-01-27T06:35:52;100925.84;;;3.41;62.24
73633;BME280;61927;50.080;14.418;2024-01-27T06:38:17;100933.69;;;3.43;62.44
73633;BME280;61927;50.080;14.418;2024-01-27T06:40:43;100940.66;;;3.48;62.21
73633;BME280;61927;50.080;14.418;2024-01-27T06:43:12;100945.97;;;3.39;62.93
73633;BME280;61927;50.080;14.418;2024-01-27T06:45:38;100947.72;;;3.40;62.27
73633;BME280;61927;50.080;14.418;2024-01-27T06:48:04;100941.50;;;3.49;61.49
73633;BME280;61927;50.080;14.418;2024-01-27T06:50:30;100948.47;;;3.53;61.82
73633;BME280;61927;50.080;14.418;2024-01-27T06:52:55;100947.72;;;3.39;61.99
73633;BME280;61927;50.080;14.418;2024-01-27T06:55:21;100956.38;;;3.50;61.41
73633;BME280;61927;50.080;14.418;2024-01-27T06:57:46;100962.56;;;3.41;61.81
73633;BME280;61927;50.080;14.418;2024-01-27T07:00:13;100956.38;;;3.51;61.49
73633;BME280;61927;50.080;14.418;2024-01-27T07:02:41;100954.72;;;3.38;61.69
73633;BME280;61927;50.080;14.418;2024-01-27T07:05:08;100956.50;;;3.36;61.63
73633;BME280;61927;50.080;14.418;2024-01-27T07:07:34;100958.25;;;3.34;61.87
73633;BME280;61927;50.080;14.418;2024-01-27T07:10:00;100961.66;;;3.45;61.49
73633;BME280;61927;50.080;14.418;2024-01-27T07:12:26;100956.56;;;3.27;62.39
73633;BME280;61927;50.080;14.418;2024-01-27T07:14:52;100963.56;;;3.28;62.18
73633;BME280;61927;50.080;14.418;2024-01-27T07:17:18;100964.47;;;3.26;62.45
73633;BME280;61927;50.080;14.418;2024-01-27T07:19:44;100981.81;;;3.42;61.85
73633;BME280;61927;50.080;14.418;2024-01-27T07:22:09;100982.63;;;3.50;61.73
73633;BME280;61927;50.080;14.418;2024-01-27T07:24:36;100983.59;;;3.40;61.76
73633;BME280;61927;50.080;14.418;2024-01-27T07:27:02;100996.63;;;3.49;61.54
73633;BME280;61927;50.080;14.418;2024-01-27T07:29:29;100989.56;;;3.57;62.05
73633;BME280;61927;50.080;14.418;2024-01-27T07:31:55;100993.13;;;3.48;61.73
73633;BME280;61927;50.080;14.418;2024-01-27T07:34:21;100998.34;;;3.51;61.83
73633;BME280;61927;50.080;14.418;2024-01-27T07:36:46;100998.34;;;3.51;61.58
73633;BME280;61927;50.080;14.418;2024-01-27T07:39:13;101003.59;;;3.51;61.71
73633;BME280;61927;50.080;14.418;2024-01-27T07:41:39;100996.56;;;3.55;61.83
73633;BME280;61927;50.080;14.418;2024-01-27T07:44:13;101005.31;;;3.55;61.66
73633;BME280;61927;50.080;14.418;2024-01-27T07:46:39;101007.06;;;3.55;61.80
73633;BME280;61927;50.080;14.418;2024-01-27T07:49:09;101000.94;;;3.56;62.16
73633;BME280;61927;50.080;14.418;2024-01-27T07:51:37;101005.38;;;3.49;62.29
73633;BME280;61927;50.080;14.418;2024-01-27T07:54:02;101007.03;;;3.58;61.92
73633;BME280;61927;50.080;14.418;2024-01-27T07:56:28;101001.84;;;3.53;62.18
73633;BME280;61927;50.080;14.418;2024-01-27T07:58:54;101008.81;;;3.56;62.39
73633;BME280;61927;50.080;14.418;2024-01-27T08:01:19;101020.16;;;3.58;62.15
73633;BME280;61927;50.080;14.418;2024-01-27T08:03:45;101033.25;;;3.63;62.47
73633;BME280;61927;50.080;14.418;2024-01-27T08:06:18;101025.47;;;3.53;62.91
73633;BME280;61927;50.080;14.418;2024-01-27T08:08:45;101035.97;;;3.52;62.70
73633;BME280;61927;50.080;14.418;2024-01-27T08:11:12;101031.41;;;3.74;62.29
73633;BME280;61927;50.080;14.418;2024-01-27T08:13:37;101027.09;;;3.68;62.14
73633;BME280;61927;50.080;14.418;2024-01-27T08:16:03;101040.16;;;3.73;62.13
73633;BME280;61927;50.080;14.418;2024-01-27T08:18:31;101043.47;;;3.93;61.67
73633;BME280;61927;50.080;14.418;2024-01-27T08:20:56;101041.06;;;3.72;61.55
73633;BME280;61927;50.080;14.418;2024-01-27T08:23:23;101035.81;;;3.70;62.80
73633;BME280;61927;50.080;14.418;2024-01-27T08:25:48;101041.03;;;3.73;62.90
73633;BME280;61927;50.080;14.418;2024-01-27T08:28:18;101037.50;;;3.77;63.16
73633;BME280;61927;50.080;14.418;2024-01-27T08:30:44;101036.56;;;3.83;62.83
73633;BME280;61927;50.080;14.418;2024-01-27T08:33:09;101037.47;;;3.80;63.31
73633;BME280;61927;50.080;14.418;2024-01-27T08:35:35;101040.84;;;3.96;62.88
73633;BME280;61927;50.080;14.418;2024-01-27T08:38:01;101048.63;;;4.04;62.46
73633;BME280;61927;50.080;14.418;2024-01-27T08:40:30;101048.56;;;4.10;62.24
73633;BME280;61927;50.080;14.418;2024-01-27T08:42:55;101057.25;;;4.19;61.98
73633;BME280;61927;50.080;14.418;2024-01-27T08:45:21;101058.03;;;4.26;61.56
73633;BME280;61927;50.080;14.418;2024-01-27T08:47:47;101068.63;;;4.20;61.07
73633;BME280;61927;50.080;14.418;2024-01-27T08:50:12;101062.47;;;4.21;61.62
73633;BME280;61927;50.080;14.418;2024-01-27T08:52:38;101063.28;;;4.29;61.09
73633;BME280;61927;50.080;14.418;2024-01-27T08:55:03;101065.22;;;4.09;62.15
73633;BME280;61927;50.080;14.418;2024-01-27T08:57:29;101055.59;;;4.09;61.77
73633;BME280;61927;50.080;14.418;2024-01-27T08:59:55;101056.59;;;3.95;62.10
73633;BME280;61927;50.080;14.418;2024-01-27T09:02:20;101069.59;;;4.08;61.37
73633;BME280;61927;50.080;14.418;2024-01-27T09:04:46;101067.78;;;4.15;61.99
73633;BME280;61927;50.080;14.418;2024-01-27T09:07:12;101071.31;;;4.12;61.36
73633;BME280;61927;50.080;14.418;2024-01-27T09:09:37;101073.94;;;4.14;61.53
73633;BME280;61927;50.080;14.418;2024-01-27T09:12:06;101086.31;;;4.01;61.56
73633;BME280;61927;50.080;14.418;2024-01-27T09:14:32;101083.56;;;4.13;61.19
73633;BME280;61927;50.080;14.418;2024-01-27T09:17:02;101091.44;;;4.15;60.89
73633;BME280;61927;50.080;14.418;2024-01-27T09:19:27;101085.34;;;4.11;61.15
73633;BME280;61927;50.080;14.418;2024-01-27T09:21:53;101090.59;;;4.11;61.75
73633;BME280;61927;50.080;14.418;2024-01-27T09:24:19;101092.22;;;4.25;61.61
73633;BME280;61927;50.080;14.418;2024-01-27T09:26:45;101102.72;;;4.26;60.75
73633;BME280;61927;50.080;14.418;2024-01-27T09:29:10;101095.59;;;4.37;61.26
73633;BME280;61927;50.080;14.418;2024-01-27T09:31:36;101104.19;;;4.53;60.74
73633;BME280;61927;50.080;14.418;2024-01-27T09:34:02;101103.41;;;4.45;60.51
73633;BME280;61927;50.080;14.418;2024-01-27T09:36:28;101105.91;;;4.57;60.25
73633;BME280;61927;50.080;14.418;2024-01-27T09:38:53;101107.41;;;4.78;60.16
73633;BME280;61927;50.080;14.418;2024-01-27T09:41:20;101101.06;;;4.94;58.63
73633;BME280;61927;50.080;14.418;2024-01-27T09:43:46;101104.63;;;4.90;58.99
73633;BME280;61927;50.080;14.418;2024-01-27T09:46:17;101106.53;;;4.79;59.49
73633;BME280;61927;50.080;14.418;2024-01-27T09:48:43;101116.72;;;5.06;59.08
73633;BME280;61927;50.080;14.418;2024-01-27T09:51:10;101113.84;;;5.23;58.19
73633;BME280;61927;50.080;14.418;2024-01-27T09:53:36;101120.84;;;5.26;58.12
73633;BME280;61927;50.080;14.418;2024-01-27T09:56:03;101124.41;;;5.20;57.53
73633;BME280;61927;50.080;14.418;2024-01-27T09:58:31;101132.31;;;5.20;58.74
73633;BME280;61927;50.080;14.418;2024-01-27T10:00:59;101134.03;;;5.24;58.19
73633;BME280;61927;50.080;14.418;2024-01-27T10:03:25;101144.44;;;5.32;57.89
73633;BME280;61927;50.080;14.418;2024-01-27T10:05:53;101143.78;;;5.16;57.72
73633;BME280;61927;50.080;14.418;2024-01-27T10:08:23;101135.88;;;5.16;58.66
73633;BME280;61927;50.080;14.418;2024-01-27T10:10:56;101127.97;;;5.16;58.52
73633;BME280;61927;50.080;14.418;2024-01-27T10:13:22;101113.03;;;5.19;58.28
73633;BME280;61927;50.080;14.418;2024-01-27T10:16:07;101112.94;;;5.26;58.57
73633;BME280;61927;50.080;14.418;2024-01-27T10:18:37;101131.38;;;5.26;58.55
73633;BME280;61927;50.080;14.418;2024-01-27T10:21:16;101109.59;;;5.14;58.79
73633;BME280;61927;50.080;14.418;2024-01-27T10:23:43;101108.53;;;5.28;57.97
73633;BME280;61927;50.080;14.418;2024-01-27T10:26:09;101127.09;;;5.17;58.43
73633;BME280;61927;50.080;14.418;2024-01-27T10:28:35;101116.25;;;5.40;58.30
73633;BME280;61927;50.080;14.418;2024-01-27T10:31:16;101111.00;;;5.40;57.77
73633;BME280;61927;50.080;14.418;2024-01-27T10:33:54;101107.50;;;5.39;58.23
73633;BME280;61927;50.080;14.418;2024-01-27T10:36:20;101102.06;;;5.50;57.76
73633;BME280;61927;50.080;14.418;2024-01-27T10:38:46;101101.22;;;5.48;57.51
73633;BME280;61927;50.080;14.418;2024-01-27T10:41:18;101106.22;;;5.66;57.56
73633;BME280;61927;50.080;14.418;2024-01-27T10:43:47;101101.31;;;5.42;57.60
73633;BME280;61927;50.080;14.418;2024-01-27T10:46:15;101106.53;;;5.45;57.78
73633;BME280;61927;50.080;14.418;2024-01-27T10:48:49;101113.66;;;5.37;58.54
73633;BME280;61927;50.080;14.418;2024-01-27T10:51:16;101103.78;;;5.53;57.81
73633;BME280;61927;50.080;14.418;2024-01-27T10:53:46;101099.84;;;5.81;57.67
73633;BME280;61927;50.080;14.418;2024-01-27T10:56:15;101098.84;;;5.90;57.20
73633;BME280;61927;50.080;14.418;2024-01-27T10:58:40;101103.28;;;5.84;57.37
73633;BME280;61927;50.080;14.418;2024-01-27T11:01:09;101095.34;;;5.88;56.85
73633;BME280;61927;50.080;14.418;2024-01-27T11:03:39;101096.09;;;5.96;57.02
73633;BME280;61927;50.080;14.418;2024-01-27T11:06:06;101094.16;;;6.07;57.31
73633;BME280;61927;50.080;14.418;2024-01-27T11:08:33;101102.13;;;6.04;57.24
73633;BME280;61927;50.080;14.418;2024-01-27T11:10:59;101097.97;;;5.89;57.11
73633;BME280;61927;50.080;14.418;2024-01-27T11:13:27;101102.16;;;6.02;57.31
73633;BME280;61927;50.080;14.418;2024-01-27T11:15:54;101101.44;;;5.93;57.08
73633;BME280;61927;50.080;14.418;2024-01-27T11:18:20;101099.72;;;5.89;56.34
73633;BME280;61927;50.080;14.418;2024-01-27T11:20:46;101107.34;;;6.07;56.53
73633;BME280;61927;50.080;14.418;2024-01-27T11:23:14;101117.94;;;6.04;56.61
73633;BME280;61927;50.080;14.418;2024-01-27T11:25:41;101123.19;;;6.04;56.22
73633;BME280;61927;50.080;14.418;2024-01-27T11:28:16;101102.53;;;6.30;56.00
73633;BME280;61927;50.080;14.418;2024-01-27T11:30:46;101100.63;;;6.38;55.43
73633;BME280;61927;50.080;14.418;2024-01-27T11:33:12;101101.81;;;6.22;55.27
73633;BME280;61927;50.080;14.418;2024-01-27T11:35:38;101099.19;;;6.21;55.46
73633;BME280;61927;50.080;14.418;2024-01-27T11:38:04;101104.44;;;6.22;55.67
73633;BME280;61927;50.080;14.418;2024-01-27T11:40:29;101098.19;;;6.28;56.16
73633;BME280;61927;50.080;14.418;2024-01-27T11:45:22;101097.31;;;6.27;55.74
73633;BME280;61927;50.080;14.418;2024-01-27T11:47:47;101099.84;;;6.33;55.44
73633;BME280;61927;50.080;14.418;2024-01-27T11:50:13;101099.97;;;6.26;55.31
73633;BME280;61927;50.080;14.418;2024-01-27T11:52:38;101107.53;;;6.45;55.49
73633;BME280;61927;50.080;14.418;2024-01-27T11:55:04;101102.44;;;6.35;55.31
73633;BME280;61927;50.080;14.418;2024-01-27T11:57:30;101104.88;;;6.47;55.12
73633;BME280;61927;50.080;14.418;2024-01-27T11:59:56;101101.31;;;6.48;54.83
73633;BME280;61927;50.080;14.418;2024-01-27T12:02:22;101099.69;;;6.42;54.50
73633;BME280;61927;50.080;14.418;2024-01-27T12:04:48;101097.25;;;6.30;55.23
73633;BME280;61927;50.080;14.418;2024-01-27T12:07:15;101094.50;;;6.36;55.77
73633;BME280;61927;50.080;14.418;2024-01-27T12:09:44;101103.13;;;6.46;55.34
73633;BME280;61927;50.080;14.418;2024-01-27T12:12:12;101086.53;;;6.39;55.69
73633;BME280;61927;50.080;14.418;2024-01-27T12:14:39;101097.97;;;6.40;55.22
73633;BME280;61927;50.080;14.418;2024-01-27T12:17:08;101091.97;;;6.32;55.59
73633;BME280;61927;50.080;14.418;2024-01-27T12:19:35;101085.72;;;6.37;56.25
73633;BME280;61927;50.080;14.418;2024-01-27T12:22:02;101090.88;;;6.43;55.57
73633;BME280;61927;50.080;14.418;2024-01-27T12:24:28;101088.09;;;6.51;55.34
73633;BME280;61927;50.080;14.418;2024-01-27T12:26:55;101082.66;;;6.59;54.97
73633;BME280;61927;50.080;14.418;2024-01-27T12:29:23;101078.03;;;6.70;55.06
73633;BME280;61927;50.080;14.418;2024-01-27T12:31:49;101081.19;;;6.89;54.46
73633;BME280;61927;50.080;14.418;2024-01-27T12:34:14;101075.06;;;6.87;53.99
73633;BME280;61927;50.080;14.418;2024-01-27T12:36:43;101081.28;;;6.84;54.07
73633;BME280;61927;50.080;14.418;2024-01-27T12:39:10;101082.09;;;6.86;53.86
73633;BME280;61927;50.080;14.418;2024-01-27T12:41:35;101083.91;;;6.84;54.05
73633;BME280;61927;50.080;14.418;2024-01-27T12:44:02;101102.34;;;6.86;53.81
73633;BME280;61927;50.080;14.418;2024-01-27T12:46:28;101093.91;;;6.68;54.06
73633;BME280;61927;50.080;14.418;2024-01-27T12:48:54;101109.91;;;6.59;54.58